Weather observations for the past three days for
Logan-Cache Airport
Metric (Imperial)
Date Time (mdt) Wind (kph) Vis. (km) Weather Sky Cond. Temperature (ºC) Relative Humidity Wind Chill (°C) Heat Index (°C) Pressure Precipitation (cm)
Air Dwpt 6 hour altimeter (cm) sea level (mb) 1 hr 3 hr 6 hr
Max. Min.
05 15:51 Calm 16.09 Fair CLR 30 -0.6 14% 28 76.17 1009.5
05 14:51 S 7 16.09 Fair CLR 28.9 0 15% 27 76.23 1010.3
05 13:51 Vrbl 6 16.09 Fair CLR 27.8 -0.6 16% 27 76.25 1010.7
05 11:51 SW 28 G 41 16.09 Fair CLR 27.2 -0.6 27.8 12.2 16% 26 76.35 1012.0
05 10:51 SW 15 G 30 16.09 Fair CLR 26.1 1.1 20% 26 76.33 1011.9
05 09:51 N 11 16.09 Fair CLR 22.2 6.1 35% 76.33 1012.1
05 08:51 N 6 16.09 Fair CLR 18.9 6.7 45% 76.33 1012.5
05 07:51 Calm 16.09 Fair CLR 16.7 3.3 41% 76.28 1011.9
05 06:51 Calm 16.09 Fair CLR 13.3 3.9 53% 76.2 1010.8
05 05:51 N 6 16.09 Fair CLR 12.8 3.9 22.2 12.2 55% 76.15 1010.3
05 04:51 SE 6 16.09 Fair CLR 18.9 2.2 33% 76.12 1009.1
05 03:51 SE 17 16.09 Fair CLR 19.4 2.2 32% 76.1 1008.5
05 02:51 SE 15 16.09 Fair CLR 19.4 2.2 32% 76.05 1007.9
05 01:51 SE 7 16.09 Fair CLR 21.7 2.2 28% 76.02 1007.3
05 00:51 S 11 16.09 Fair CLR 21.1 3.3 31% 75.97 1007.0
04 23:51 S 11 16.09 Fair CLR 21.1 3.3 29.4 21.1 31% 75.92 1006.4
04 22:51 SE 9 16.09 Fair CLR 22.2 2.8 28% 75.9 1006.0
04 21:51 SE 13 16.09 A Few Clouds FEW120 23.3 2.2 25% 75.9 1005.9
04 20:51 E 6 16.09 Fair CLR 23.3 3.3 27% 75.87 1006.1
04 19:51 NE 6 16.09 Fair CLR 25.6 2.8 23% 25 75.84 1005.9
04 18:51 Calm 16.09 Fair CLR 28.9 1.1 17% 27 75.87 1006.0
04 17:51 SW 17 G 28 16.09 Fair CLR 29.4 1.7 30 27.2 17% 28 75.87 1007.0
04 16:51 SW 22 G 31 16.09 Fair CLR 29.4 1.1 16% 28 75.9 1007.4
04 15:51 SW 26 G 37 16.09 Fair CLR 29.4 0.6 15% 28 75.92 1007.9
04 14:51 SW 28 G 39 16.09 Fair CLR 29.4 1.7 17% 28 75.95 1007.7
04 13:51 SW 30 G 50 16.09 Fair CLR 28.9 -1.1 14% 27 76 1008.4
04 12:51 SW 28 G 46 16.09 Fair CLR 27.8 -0.6 16% 27 76.02 1008.7
04 11:51 SW 33 G 44 16.09 Fair and Breezy CLR 27.2 0 27.2 9.4 17% 26 76.05 1009.4
04 10:51 S 35 G 50 16.09 Fair and Breezy CLR 26.1 -1.7 16% 25 76.05 1008.9
04 09:51 S 19 16.09 Fair CLR 25 -1.1 18% 25 76.02 1008.7
04 08:51 SE 7 16.09 Fair CLR 21.7 -2.2 20% 76.02 1008.4
04 07:51 SE 15 16.09 Fair CLR 17.8 -1.7 27% 75.97 1007.8
04 06:51 SE 13 16.09 Fair CLR 15.6 -1.7 31% 75.9 1006.8
04 05:51 NE 7 16.09 Fair CLR 8.9 2.2 13.9 6.1 63% 8 75.87 1006.9
04 04:51 NE 7 16.09 Fair CLR 7.8 2.8 71% 7 75.82 1006.7
04 03:51 N 6 16.09 Fair CLR 7.2 3.3 77% 75.79 1006.2
04 02:51 NE 6 16.09 Fair CLR 10 4.4 68% 75.74 1005.6
04 01:51 NE 6 16.09 Fair CLR 9.4 4.4 71% 75.74 1005.8
04 00:51 NE 6 16.09 Fair CLR 12.2 3.9 57% 75.74 1005.7
03 23:51 NE 6 16.09 Fair CLR 11.1 4.4 27.8 11.1 64% 75.74 1005.9
03 22:51 Calm 16.09 Fair CLR 14.4 3.9 50% 75.74 1006.1
03 21:51 SW 7 16.09 Fair CLR 15.6 3.9 46% 75.77 1006.5
03 20:51 E 13 16.09 Fair CLR 20.6 1.7 29% 75.77 1006.0
03 19:51 N 9 16.09 Fair CLR 23.3 1.7 24% 75.79 1006.3
03 18:51 SW 9 16.09 Fair CLR 26.7 -1.1 16% 26 75.82 1006.7
03 17:51 SW 13 16.09 Fair CLR 27.2 -1.7 27.8 20.6 15% 26 75.84 1006.7
03 16:51 Vrbl 6 16.09 Fair CLR 27.2 -2.8 14% 26 75.87 1006.6
03 15:51 Vrbl 7 G 28 16.09 Fair CLR 26.7 -3.3 14% 26 75.92 1007.8
03 14:51 Calm 16.09 Fair CLR 25.6 -2.8 15% 25 76.02 1008.9
03 13:51 S 17 16.09 Fair CLR 25 -2.2 16% 25 76.07 1009.2
03 12:51 Vrbl 6 16.09 Fair CLR 22.8 1.1 24% 76.15 1010.6
03 11:51 N 9 16.09 Fair CLR 20.6 0.6 20.6 6.7 26% 76.2 1011.7
03 10:51 Calm 16.09 A Few Clouds FEW002 17.8 2.8 37% 76.23 1012.3
03 09:51 N 9 9.66 Fair with Haze CLR 15 3.3 46% 76.23 1013.0
03 08:51 Calm 16.09 Fair CLR 12.8 3.9 55% 76.25 1012.8
03 07:51 Calm 16.09 Fair CLR 10.6 3.9 64% 76.2 1012.2
03 06:51 Calm 16.09 Fair CLR 8.3 2.2 66% 76.17 1011.8
03 05:51 NW 6 16.09 Fair CLR 7.8 3.3 16.1 6.7 73% 76.15 1011.2
03 04:51 Calm 16.09 Fair CLR 12.2 2.8 53% 76.12 1010.1
03 03:51 NE 6 16.09 Fair CLR 11.1 4.4 64% 76.12 1010.2
03 02:51 Calm 16.09 Fair CLR 11.7 5 64% 76.07 1009.4
03 01:51 S 7 16.09 Fair CLR 15.6 2.2 41% 76.07 1009.1
03 00:51 S 15 16.09 Fair CLR 15.6 2.2 41% 76.07 1008.8
02 23:51 S 13 16.09 Fair CLR 15 2.2 26.1 13.9 42% 76.05 1008.7
02 22:51 N 19 16.09 Fair CLR 15.6 0.6 36% 76.05 1008.8
02 21:51 NW 15 16.09 Fair CLR 14.4 3.9 50% 76 1008.7
02 20:51 Calm 16.09 Fair CLR 18.9 -1.1 26% 75.95 1008.0
02 19:51 Calm 16.09 Fair CLR 22.2 -1.1 21% 75.92 1008.2
02 18:51 NW 7 12.87 Fair CLR 23.3 -0.6 20% 75.95 1008.7
02 17:51 W 20 16.09 Fair CLR 26.1 -3.9 28.3 26.1 14% 25 75.97 1008.4
02 16:51 SW 19 16.09 Fair CLR 27.8 -0.6 16% 27 75.97 1007.8
Date Time (mdt) Wind (kph) Vis. (km) Weather Sky Cond. Air Dwpt Max. Min. Relative Humidity Wind Chill (°C) Heat Index (°C) altimeter (cm) sea level (mb) 1 hr 3 hr 6 hr
6 hour
Temperature (ºC) Pressure Precipitation (cm)